Flight Briefing for CPX332

Departure Arrival
Austin-Bergstrom International Airport (KAUS)
Click to view FAA NOTAMS
Valley International Airport (KHRL)
Click to view FAA NOTAMS
Departure Time Arrival Time
N/A N/A
Aircraft Distance
B767-300BDSF 273nm
Departure METAR Arrival METAR
KAUS 180553Z 02012KT 10SM BKN250 09/01 A3010 RMK AO2 SLP191 T00940006 10144 20094 401720083 53035 $ KHRL 180552Z AUTO 01012KT 10SM OVC021 17/11 A2995 RMK AO2 SLP140 T01670111 10194 20167 402330167 51022 $
Suggested Route
PCKIT CRP


View recent IFR Routes data
Notes



Charts and Procedures

Charts for KAUS
No chart available
Charts for KHRL
No chart available

Ventusky Weather